sensor_id;sensor_type;location;lat;lon;timestamp;P1;durP1;ratioP1;P2;durP2;ratioP2
8413;SDS011;4244;48.684;9.028;2023-06-26T00:00:26;11.37;;;10.03;;
8413;SDS011;4244;48.684;9.028;2023-06-26T00:02:51;10.23;;;9.23;;
8413;SDS011;4244;48.684;9.028;2023-06-26T00:05:17;9.83;;;8.90;;
8413;SDS011;4244;48.684;9.028;2023-06-26T00:07:42;9.73;;;8.80;;
8413;SDS011;4244;48.684;9.028;2023-06-26T00:10:08;10.57;;;9.67;;
8413;SDS011;4244;48.684;9.028;2023-06-26T00:12:34;10.80;;;9.80;;
8413;SDS011;4244;48.684;9.028;2023-06-26T00:15:00;11.10;;;10.10;;
8413;SDS011;4244;48.684;9.028;2023-06-26T00:17:25;11.13;;;10.13;;
8413;SDS011;4244;48.684;9.028;2023-06-26T00:19:51;10.63;;;9.63;;
8413;SDS011;4244;48.684;9.028;2023-06-26T00:22:17;9.90;;;9.00;;
8413;SDS011;4244;48.684;9.028;2023-06-26T00:24:43;12.13;;;10.90;;
8413;SDS011;4244;48.684;9.028;2023-06-26T00:27:10;9.50;;;8.60;;
8413;SDS011;4244;48.684;9.028;2023-06-26T00:29:35;11.70;;;10.70;;
8413;SDS011;4244;48.684;9.028;2023-06-26T00:32:01;11.00;;;10.00;;
8413;SDS011;4244;48.684;9.028;2023-06-26T00:34:26;11.57;;;10.47;;
8413;SDS011;4244;48.684;9.028;2023-06-26T00:36:52;11.33;;;10.30;;
8413;SDS011;4244;48.684;9.028;2023-06-26T00:39:17;11.80;;;9.50;;
8413;SDS011;4244;48.684;9.028;2023-06-26T00:41:43;11.00;;;9.97;;
8413;SDS011;4244;48.684;9.028;2023-06-26T00:44:09;10.40;;;9.50;;
8413;SDS011;4244;48.684;9.028;2023-06-26T00:46:34;10.60;;;9.60;;
8413;SDS011;4244;48.684;9.028;2023-06-26T00:49:00;11.30;;;10.20;;
8413;SDS011;4244;48.684;9.028;2023-06-26T00:51:28;9.07;;;8.23;;
8413;SDS011;4244;48.684;9.028;2023-06-26T00:53:55;10.63;;;9.70;;
8413;SDS011;4244;48.684;9.028;2023-06-26T00:56:21;10.63;;;9.63;;
8413;SDS011;4244;48.684;9.028;2023-06-26T00:58:47;10.20;;;9.23;;
8413;SDS011;4244;48.684;9.028;2023-06-26T01:01:13;10.70;;;9.70;;
8413;SDS011;4244;48.684;9.028;2023-06-26T01:03:45;12.17;;;10.70;;
8413;SDS011;4244;48.684;9.028;2023-06-26T01:06:17;10.40;;;9.40;;
8413;SDS011;4244;48.684;9.028;2023-06-26T01:08:43;10.13;;;9.23;;
8413;SDS011;4244;48.684;9.028;2023-06-26T01:11:09;11.63;;;10.50;;
8413;SDS011;4244;48.684;9.028;2023-06-26T01:13:36;10.83;;;9.73;;
8413;SDS011;4244;48.684;9.028;2023-06-26T01:16:02;11.10;;;10.00;;
8413;SDS011;4244;48.684;9.028;2023-06-26T01:18:28;11.27;;;10.17;;
8413;SDS011;4244;48.684;9.028;2023-06-26T01:20:54;10.90;;;9.80;;
8413;SDS011;4244;48.684;9.028;2023-06-26T01:23:38;11.43;;;9.40;;
8413;SDS011;4244;48.684;9.028;2023-06-26T01:26:23;10.03;;;9.13;;
8413;SDS011;4244;48.684;9.028;2023-06-26T01:28:52;11.23;;;10.10;;
8413;SDS011;4244;48.684;9.028;2023-06-26T01:31:18;9.80;;;8.83;;
8413;SDS011;4244;48.684;9.028;2023-06-26T01:33:45;10.83;;;9.87;;
8413;SDS011;4244;48.684;9.028;2023-06-26T01:36:11;10.70;;;9.70;;
8413;SDS011;4244;48.684;9.028;2023-06-26T01:38:37;10.50;;;9.40;;
8413;SDS011;4244;48.684;9.028;2023-06-26T01:41:06;10.63;;;9.63;;
8413;SDS011;4244;48.684;9.028;2023-06-26T01:46:27;10.33;;;8.90;;
8413;SDS011;4244;48.684;9.028;2023-06-26T01:48:59;9.80;;;8.90;;
8413;SDS011;4244;48.684;9.028;2023-06-26T01:51:38;11.10;;;9.60;;
8413;SDS011;4244;48.684;9.028;2023-06-26T01:54:10;10.03;;;9.03;;
8413;SDS011;4244;48.684;9.028;2023-06-26T01:56:41;10.93;;;9.83;;
8413;SDS011;4244;48.684;9.028;2023-06-26T01:59:07;9.83;;;8.93;;
8413;SDS011;4244;48.684;9.028;2023-06-26T02:01:33;10.33;;;9.43;;
8413;SDS011;4244;48.684;9.028;2023-06-26T02:03:59;10.90;;;9.87;;
8413;SDS011;4244;48.684;9.028;2023-06-26T02:06:25;10.50;;;9.50;;
8413;SDS011;4244;48.684;9.028;2023-06-26T02:08:50;11.13;;;10.03;;
8413;SDS011;4244;48.684;9.028;2023-06-26T02:11:16;9.97;;;8.97;;
8413;SDS011;4244;48.684;9.028;2023-06-26T02:13:42;10.30;;;9.30;;
8413;SDS011;4244;48.684;9.028;2023-06-26T02:16:07;10.60;;;9.60;;
8413;SDS011;4244;48.684;9.028;2023-06-26T02:18:33;9.40;;;8.47;;
8413;SDS011;4244;48.684;9.028;2023-06-26T02:20:59;10.80;;;9.53;;
8413;SDS011;4244;48.684;9.028;2023-06-26T02:23:25;11.40;;;9.83;;
8413;SDS011;4244;48.684;9.028;2023-06-26T02:25:51;9.50;;;8.60;;
8413;SDS011;4244;48.684;9.028;2023-06-26T02:28:17;10.17;;;9.23;;
8413;SDS011;4244;48.684;9.028;2023-06-26T02:30:43;10.93;;;9.63;;
8413;SDS011;4244;48.684;9.028;2023-06-26T02:33:08;10.00;;;9.10;;
8413;SDS011;4244;48.684;9.028;2023-06-26T02:35:34;10.20;;;9.30;;
8413;SDS011;4244;48.684;9.028;2023-06-26T02:37:59;10.30;;;9.40;;
8413;SDS011;4244;48.684;9.028;2023-06-26T02:40:25;9.73;;;8.93;;
8413;SDS011;4244;48.684;9.028;2023-06-26T02:42:51;9.57;;;8.73;;
8413;SDS011;4244;48.684;9.028;2023-06-26T02:45:16;9.90;;;9.00;;
8413;SDS011;4244;48.684;9.028;2023-06-26T02:47:42;9.83;;;8.93;;
8413;SDS011;4244;48.684;9.028;2023-06-26T02:50:08;9.93;;;9.07;;
8413;SDS011;4244;48.684;9.028;2023-06-26T02:52:34;10.57;;;9.60;;
8413;SDS011;4244;48.684;9.028;2023-06-26T02:54:59;10.40;;;9.50;;
8413;SDS011;4244;48.684;9.028;2023-06-26T02:57:26;10.40;;;9.30;;
8413;SDS011;4244;48.684;9.028;2023-06-26T02:59:52;12.00;;;9.70;;
8413;SDS011;4244;48.684;9.028;2023-06-26T03:02:17;9.70;;;8.70;;
8413;SDS011;4244;48.684;9.028;2023-06-26T03:04:43;10.20;;;9.30;;
8413;SDS011;4244;48.684;9.028;2023-06-26T03:07:09;9.90;;;8.97;;
8413;SDS011;4244;48.684;9.028;2023-06-26T03:09:34;10.13;;;9.17;;
8413;SDS011;4244;48.684;9.028;2023-06-26T03:12:00;9.47;;;8.63;;
8413;SDS011;4244;48.684;9.028;2023-06-26T03:14:26;11.00;;;10.00;;
8413;SDS011;4244;48.684;9.028;2023-06-26T03:16:52;11.07;;;10.07;;
8413;SDS011;4244;48.684;9.028;2023-06-26T03:19:18;9.80;;;8.90;;
8413;SDS011;4244;48.684;9.028;2023-06-26T03:21:44;10.73;;;9.80;;
8413;SDS011;4244;48.684;9.028;2023-06-26T03:24:09;10.70;;;9.70;;
8413;SDS011;4244;48.684;9.028;2023-06-26T03:26:35;10.37;;;9.37;;
8413;SDS011;4244;48.684;9.028;2023-06-26T03:29:00;10.20;;;9.30;;
8413;SDS011;4244;48.684;9.028;2023-06-26T03:31:26;10.03;;;9.03;;
8413;SDS011;4244;48.684;9.028;2023-06-26T03:33:52;10.27;;;9.27;;
8413;SDS011;4244;48.684;9.028;2023-06-26T03:36:18;10.87;;;9.77;;
8413;SDS011;4244;48.684;9.028;2023-06-26T03:38:43;10.13;;;9.13;;
8413;SDS011;4244;48.684;9.028;2023-06-26T03:41:09;9.43;;;8.60;;
8413;SDS011;4244;48.684;9.028;2023-06-26T03:43:35;10.53;;;9.53;;
8413;SDS011;4244;48.684;9.028;2023-06-26T03:46:01;10.57;;;9.57;;
8413;SDS011;4244;48.684;9.028;2023-06-26T03:48:27;9.63;;;8.83;;
8413;SDS011;4244;48.684;9.028;2023-06-26T03:50:53;10.33;;;9.43;;
8413;SDS011;4244;48.684;9.028;2023-06-26T03:53:18;11.27;;;9.80;;
8413;SDS011;4244;48.684;9.028;2023-06-26T03:55:44;10.10;;;9.20;;
8413;SDS011;4244;48.684;9.028;2023-06-26T03:58:10;10.17;;;9.13;;
8413;SDS011;4244;48.684;9.028;2023-06-26T04:00:36;9.13;;;8.33;;
8413;SDS011;4244;48.684;9.028;2023-06-26T04:03:04;9.83;;;8.93;;
8413;SDS011;4244;48.684;9.028;2023-06-26T04:05:30;10.23;;;9.23;;
8413;SDS011;4244;48.684;9.028;2023-06-26T04:07:56;10.50;;;9.60;;
8413;SDS011;4244;48.684;9.028;2023-06-26T04:10:22;9.63;;;8.77;;
8413;SDS011;4244;48.684;9.028;2023-06-26T04:12:50;9.97;;;8.97;;
8413;SDS011;4244;48.684;9.028;2023-06-26T04:15:15;11.40;;;10.37;;
8413;SDS011;4244;48.684;9.028;2023-06-26T04:17:42;10.70;;;9.60;;
8413;SDS011;4244;48.684;9.028;2023-06-26T04:20:08;10.10;;;9.20;;
8413;SDS011;4244;48.684;9.028;2023-06-26T04:22:34;9.90;;;9.00;;
8413;SDS011;4244;48.684;9.028;2023-06-26T04:25:02;9.20;;;8.30;;
8413;SDS011;4244;48.684;9.028;2023-06-26T04:27:28;10.73;;;9.73;;
8413;SDS011;4244;48.684;9.028;2023-06-26T04:29:55;10.80;;;9.80;;
8413;SDS011;4244;48.684;9.028;2023-06-26T04:32:20;9.57;;;8.73;;
8413;SDS011;4244;48.684;9.028;2023-06-26T04:34:46;9.87;;;8.97;;
8413;SDS011;4244;48.684;9.028;2023-06-26T04:37:12;10.97;;;10.07;;
8413;SDS011;4244;48.684;9.028;2023-06-26T04:39:41;9.33;;;8.53;;
8413;SDS011;4244;48.684;9.028;2023-06-26T04:42:07;11.10;;;10.20;;
8413;SDS011;4244;48.684;9.028;2023-06-26T04:44:34;11.97;;;9.57;;
8413;SDS011;4244;48.684;9.028;2023-06-26T04:47:00;10.47;;;9.47;;
8413;SDS011;4244;48.684;9.028;2023-06-26T04:49:26;9.83;;;8.90;;
8413;SDS011;4244;48.684;9.028;2023-06-26T04:51:52;10.60;;;9.50;;
8413;SDS011;4244;48.684;9.028;2023-06-26T04:54:19;10.00;;;9.20;;
8413;SDS011;4244;48.684;9.028;2023-06-26T04:56:45;11.43;;;10.33;;
8413;SDS011;4244;48.684;9.028;2023-06-26T04:59:12;10.07;;;9.17;;
8413;SDS011;4244;48.684;9.028;2023-06-26T05:01:38;10.70;;;9.70;;
8413;SDS011;4244;48.684;9.028;2023-06-26T05:04:04;10.67;;;9.60;;
8413;SDS011;4244;48.684;9.028;2023-06-26T05:06:30;10.33;;;9.43;;
8413;SDS011;4244;48.684;9.028;2023-06-26T05:08:56;9.57;;;8.63;;
8413;SDS011;4244;48.684;9.028;2023-06-26T05:11:21;10.50;;;9.50;;
8413;SDS011;4244;48.684;9.028;2023-06-26T05:13:49;10.33;;;9.43;;
8413;SDS011;4244;48.684;9.028;2023-06-26T05:16:16;9.97;;;8.97;;
8413;SDS011;4244;48.684;9.028;2023-06-26T05:18:41;10.40;;;9.50;;
8413;SDS011;4244;48.684;9.028;2023-06-26T05:21:07;10.13;;;9.07;;
8413;SDS011;4244;48.684;9.028;2023-06-26T05:23:33;9.93;;;9.03;;
8413;SDS011;4244;48.684;9.028;2023-06-26T05:26:02;10.50;;;9.50;;
8413;SDS011;4244;48.684;9.028;2023-06-26T05:28:29;10.00;;;9.00;;
8413;SDS011;4244;48.684;9.028;2023-06-26T05:30:58;10.43;;;9.40;;
8413;SDS011;4244;48.684;9.028;2023-06-26T05:33:27;9.90;;;8.90;;
8413;SDS011;4244;48.684;9.028;2023-06-26T05:35:53;10.10;;;9.20;;
8413;SDS011;4244;48.684;9.028;2023-06-26T05:38:19;9.70;;;8.90;;
8413;SDS011;4244;48.684;9.028;2023-06-26T05:40:45;10.90;;;9.90;;
8413;SDS011;4244;48.684;9.028;2023-06-26T05:43:11;10.57;;;9.47;;
8413;SDS011;4244;48.684;9.028;2023-06-26T05:45:37;9.90;;;9.00;;
8413;SDS011;4244;48.684;9.028;2023-06-26T05:48:03;10.70;;;9.80;;
8413;SDS011;4244;48.684;9.028;2023-06-26T05:50:29;10.20;;;8.77;;
8413;SDS011;4244;48.684;9.028;2023-06-26T05:52:55;9.57;;;8.67;;
8413;SDS011;4244;48.684;9.028;2023-06-26T05:55:21;10.17;;;9.17;;
8413;SDS011;4244;48.684;9.028;2023-06-26T05:57:47;8.93;;;8.10;;
8413;SDS011;4244;48.684;9.028;2023-06-26T06:00:13;10.13;;;9.20;;
8413;SDS011;4244;48.684;9.028;2023-06-26T06:02:39;9.53;;;8.73;;
8413;SDS011;4244;48.684;9.028;2023-06-26T06:05:11;10.17;;;9.17;;
8413;SDS011;4244;48.684;9.028;2023-06-26T06:07:39;8.33;;;7.53;;
8413;SDS011;4244;48.684;9.028;2023-06-26T06:10:05;9.20;;;8.40;;
8413;SDS011;4244;48.684;9.028;2023-06-26T06:12:31;10.43;;;9.53;;
8413;SDS011;4244;48.684;9.028;2023-06-26T06:14:56;10.30;;;9.30;;
8413;SDS011;4244;48.684;9.028;2023-06-26T06:17:22;9.40;;;8.57;;
8413;SDS011;4244;48.684;9.028;2023-06-26T06:19:49;8.90;;;8.03;;
8413;SDS011;4244;48.684;9.028;2023-06-26T06:22:14;9.17;;;8.37;;
8413;SDS011;4244;48.684;9.028;2023-06-26T06:24:42;9.23;;;8.43;;
8413;SDS011;4244;48.684;9.028;2023-06-26T06:27:09;8.90;;;7.60;;
8413;SDS011;4244;48.684;9.028;2023-06-26T06:29:34;8.40;;;7.63;;
8413;SDS011;4244;48.684;9.028;2023-06-26T06:32:00;9.97;;;8.93;;
8413;SDS011;4244;48.684;9.028;2023-06-26T06:34:25;9.70;;;8.80;;
8413;SDS011;4244;48.684;9.028;2023-06-26T06:36:51;9.63;;;8.73;;
8413;SDS011;4244;48.684;9.028;2023-06-26T06:39:16;8.47;;;7.77;;
8413;SDS011;4244;48.684;9.028;2023-06-26T06:41:42;9.80;;;8.90;;
8413;SDS011;4244;48.684;9.028;2023-06-26T06:44:08;10.20;;;9.00;;
8413;SDS011;4244;48.684;9.028;2023-06-26T06:46:33;9.27;;;8.47;;
8413;SDS011;4244;48.684;9.028;2023-06-26T06:48:59;9.00;;;8.20;;
8413;SDS011;4244;48.684;9.028;2023-06-26T06:51:25;8.77;;;7.90;;
8413;SDS011;4244;48.684;9.028;2023-06-26T06:53:51;9.50;;;8.70;;
8413;SDS011;4244;48.684;9.028;2023-06-26T06:56:16;9.33;;;8.37;;
8413;SDS011;4244;48.684;9.028;2023-06-26T06:58:42;9.23;;;8.33;;
8413;SDS011;4244;48.684;9.028;2023-06-26T07:01:09;7.80;;;7.10;;
8413;SDS011;4244;48.684;9.028;2023-06-26T07:03:34;9.40;;;8.60;;
8413;SDS011;4244;48.684;9.028;2023-06-26T07:06:01;9.40;;;8.60;;
8413;SDS011;4244;48.684;9.028;2023-06-26T07:08:28;9.17;;;7.80;;
8413;SDS011;4244;48.684;9.028;2023-06-26T07:10:54;9.23;;;8.30;;
8413;SDS011;4244;48.684;9.028;2023-06-26T07:13:21;9.23;;;8.30;;
8413;SDS011;4244;48.684;9.028;2023-06-26T07:15:47;9.50;;;8.60;;
8413;SDS011;4244;48.684;9.028;2023-06-26T07:18:13;8.90;;;8.10;;
8413;SDS011;4244;48.684;9.028;2023-06-26T07:20:39;11.00;;;8.87;;
8413;SDS011;4244;48.684;9.028;2023-06-26T07:23:05;8.97;;;8.17;;
8413;SDS011;4244;48.684;9.028;2023-06-26T07:25:30;9.07;;;8.37;;
8413;SDS011;4244;48.684;9.028;2023-06-26T07:27:56;9.30;;;8.50;;
8413;SDS011;4244;48.684;9.028;2023-06-26T07:30:21;9.10;;;8.20;;
8413;SDS011;4244;48.684;9.028;2023-06-26T07:32:49;8.40;;;7.73;;
8413;SDS011;4244;48.684;9.028;2023-06-26T07:35:15;8.60;;;7.90;;
8413;SDS011;4244;48.684;9.028;2023-06-26T07:37:40;10.33;;;9.43;;
8413;SDS011;4244;48.684;9.028;2023-06-26T07:40:06;8.37;;;7.77;;
8413;SDS011;4244;48.684;9.028;2023-06-26T07:42:32;10.20;;;9.40;;
8413;SDS011;4244;48.684;9.028;2023-06-26T07:44:58;8.47;;;7.77;;
8413;SDS011;4244;48.684;9.028;2023-06-26T07:47:24;10.70;;;8.87;;
8413;SDS011;4244;48.684;9.028;2023-06-26T07:49:49;8.60;;;7.90;;
8413;SDS011;4244;48.684;9.028;2023-06-26T07:52:15;8.97;;;8.17;;
8413;SDS011;4244;48.684;9.028;2023-06-26T07:54:41;9.07;;;8.27;;
8413;SDS011;4244;48.684;9.028;2023-06-26T07:57:06;8.73;;;8.00;;
8413;SDS011;4244;48.684;9.028;2023-06-26T07:59:33;9.43;;;8.53;;
8413;SDS011;4244;48.684;9.028;2023-06-26T08:01:59;8.60;;;7.90;;
8413;SDS011;4244;48.684;9.028;2023-06-26T08:04:26;9.10;;;7.97;;
8413;SDS011;4244;48.684;9.028;2023-06-26T08:06:59;9.57;;;8.73;;
8413;SDS011;4244;48.684;9.028;2023-06-26T08:09:27;7.67;;;7.07;;
8413;SDS011;4244;48.684;9.028;2023-06-26T08:11:53;8.33;;;7.73;;
8413;SDS011;4244;48.684;9.028;2023-06-26T08:14:20;8.43;;;7.67;;
8413;SDS011;4244;48.684;9.028;2023-06-26T08:16:47;8.10;;;7.43;;
8413;SDS011;4244;48.684;9.028;2023-06-26T08:19:13;9.00;;;8.27;;
8413;SDS011;4244;48.684;9.028;2023-06-26T08:21:40;9.40;;;8.60;;
8413;SDS011;4244;48.684;9.028;2023-06-26T08:24:06;7.90;;;7.30;;
8413;SDS011;4244;48.684;9.028;2023-06-26T08:26:32;8.30;;;7.60;;
8413;SDS011;4244;48.684;9.028;2023-06-26T08:28:58;7.87;;;7.27;;
8413;SDS011;4244;48.684;9.028;2023-06-26T08:31:24;8.53;;;7.90;;
8413;SDS011;4244;48.684;9.028;2023-06-26T08:33:50;9.53;;;8.40;;
8413;SDS011;4244;48.684;9.028;2023-06-26T08:36:18;9.30;;;8.40;;
8413;SDS011;4244;48.684;9.028;2023-06-26T08:38:44;8.77;;;8.07;;
8413;SDS011;4244;48.684;9.028;2023-06-26T08:41:09;8.73;;;7.93;;
8413;SDS011;4244;48.684;9.028;2023-06-26T08:43:35;8.80;;;8.10;;
8413;SDS011;4244;48.684;9.028;2023-06-26T08:46:01;7.80;;;7.20;;
8413;SDS011;4244;48.684;9.028;2023-06-26T08:48:28;8.90;;;8.20;;
8413;SDS011;4244;48.684;9.028;2023-06-26T08:50:55;8.17;;;7.47;;
8413;SDS011;4244;48.684;9.028;2023-06-26T08:53:43;8.63;;;7.77;;
8413;SDS011;4244;48.684;9.028;2023-06-26T08:56:31;8.30;;;7.70;;
8413;SDS011;4244;48.684;9.028;2023-06-26T08:58:57;8.90;;;8.30;;
8413;SDS011;4244;48.684;9.028;2023-06-26T09:01:24;9.10;;;8.40;;
8413;SDS011;4244;48.684;9.028;2023-06-26T09:03:50;8.63;;;7.83;;
8413;SDS011;4244;48.684;9.028;2023-06-26T09:06:16;9.43;;;8.53;;
8413;SDS011;4244;48.684;9.028;2023-06-26T09:08:43;7.33;;;6.73;;
8413;SDS011;4244;48.684;9.028;2023-06-26T09:11:09;8.93;;;8.30;;
8413;SDS011;4244;48.684;9.028;2023-06-26T09:13:37;8.17;;;7.47;;
8413;SDS011;4244;48.684;9.028;2023-06-26T09:16:06;9.30;;;8.60;;
8413;SDS011;4244;48.684;9.028;2023-06-26T09:18:35;8.90;;;8.20;;
8413;SDS011;4244;48.684;9.028;2023-06-26T09:21:07;8.50;;;7.80;;
8413;SDS011;4244;48.684;9.028;2023-06-26T09:23:34;8.13;;;7.53;;
8413;SDS011;4244;48.684;9.028;2023-06-26T09:26:10;8.70;;;8.00;;
8413;SDS011;4244;48.684;9.028;2023-06-26T09:28:36;8.80;;;8.10;;
8413;SDS011;4244;48.684;9.028;2023-06-26T09:31:05;10.87;;;9.27;;
8413;SDS011;4244;48.684;9.028;2023-06-26T09:33:35;9.13;;;8.10;;
8413;SDS011;4244;48.684;9.028;2023-06-26T09:36:04;8.57;;;7.93;;
8413;SDS011;4244;48.684;9.028;2023-06-26T09:38:30;8.40;;;7.70;;
8413;SDS011;4244;48.684;9.028;2023-06-26T09:40:56;8.77;;;7.97;;
8413;SDS011;4244;48.684;9.028;2023-06-26T09:43:22;8.10;;;7.40;;
8413;SDS011;4244;48.684;9.028;2023-06-26T09:45:48;8.37;;;7.67;;
8413;SDS011;4244;48.684;9.028;2023-06-26T09:48:14;9.70;;;8.70;;
8413;SDS011;4244;48.684;9.028;2023-06-26T09:50:41;8.83;;;8.23;;
8413;SDS011;4244;48.684;9.028;2023-06-26T09:53:12;9.10;;;8.40;;
8413;SDS011;4244;48.684;9.028;2023-06-26T09:55:39;8.23;;;7.53;;
8413;SDS011;4244;48.684;9.028;2023-06-26T09:58:12;8.87;;;8.17;;
8413;SDS011;4244;48.684;9.028;2023-06-26T10:00:40;8.60;;;7.80;;
8413;SDS011;4244;48.684;9.028;2023-06-26T10:03:10;9.13;;;8.43;;
8413;SDS011;4244;48.684;9.028;2023-06-26T10:05:37;9.53;;;8.63;;
8413;SDS011;4244;48.684;9.028;2023-06-26T10:08:04;9.30;;;8.50;;
8413;SDS011;4244;48.684;9.028;2023-06-26T10:10:30;9.20;;;8.40;;
8413;SDS011;4244;48.684;9.028;2023-06-26T10:13:04;8.60;;;7.90;;
8413;SDS011;4244;48.684;9.028;2023-06-26T10:15:43;9.00;;;8.20;;
8413;SDS011;4244;48.684;9.028;2023-06-26T10:18:10;9.00;;;8.20;;
8413;SDS011;4244;48.684;9.028;2023-06-26T10:20:36;8.73;;;8.03;;
8413;SDS011;4244;48.684;9.028;2023-06-26T10:23:02;8.90;;;8.20;;
8413;SDS011;4244;48.684;9.028;2023-06-26T10:25:28;8.70;;;8.00;;
8413;SDS011;4244;48.684;9.028;2023-06-26T10:27:58;9.03;;;8.33;;
8413;SDS011;4244;48.684;9.028;2023-06-26T10:30:26;9.60;;;8.80;;
8413;SDS011;4244;48.684;9.028;2023-06-26T10:32:55;11.30;;;8.60;;
8413;SDS011;4244;48.684;9.028;2023-06-26T10:35:21;10.17;;;9.37;;
8413;SDS011;4244;48.684;9.028;2023-06-26T10:37:48;10.37;;;9.43;;
8413;SDS011;4244;48.684;9.028;2023-06-26T10:40:22;9.20;;;8.50;;
8413;SDS011;4244;48.684;9.028;2023-06-26T10:42:55;11.50;;;10.47;;
8413;SDS011;4244;48.684;9.028;2023-06-26T10:45:32;10.13;;;9.30;;
8413;SDS011;4244;48.684;9.028;2023-06-26T10:47:58;11.20;;;10.30;;
8413;SDS011;4244;48.684;9.028;2023-06-26T10:50:25;10.50;;;9.60;;
8413;SDS011;4244;48.684;9.028;2023-06-26T10:58:39;10.50;;;9.70;;
8413;SDS011;4244;48.684;9.028;2023-06-26T11:03:47;10.57;;;9.67;;
8413;SDS011;4244;48.684;9.028;2023-06-26T11:06:27;11.07;;;9.97;;
8413;SDS011;4244;48.684;9.028;2023-06-26T11:08:53;10.20;;;9.20;;
8413;SDS011;4244;48.684;9.028;2023-06-26T11:14:19;9.83;;;9.13;;
8413;SDS011;4244;48.684;9.028;2023-06-26T11:16:49;10.00;;;9.10;;
8413;SDS011;4244;48.684;9.028;2023-06-26T11:19:16;10.80;;;9.90;;
8413;SDS011;4244;48.684;9.028;2023-06-26T11:21:43;10.00;;;9.30;;
8413;SDS011;4244;48.684;9.028;2023-06-26T11:24:10;11.33;;;10.37;;
8413;SDS011;4244;48.684;9.028;2023-06-26T11:26:40;11.10;;;10.20;;
8413;SDS011;4244;48.684;9.028;2023-06-26T11:29:07;10.60;;;9.70;;
8413;SDS011;4244;48.684;9.028;2023-06-26T11:31:34;9.70;;;8.90;;
8413;SDS011;4244;48.684;9.028;2023-06-26T11:34:06;10.80;;;10.00;;
8413;SDS011;4244;48.684;9.028;2023-06-26T11:36:34;10.63;;;9.80;;
8413;SDS011;4244;48.684;9.028;2023-06-26T11:39:04;10.30;;;9.40;;
8413;SDS011;4244;48.684;9.028;2023-06-26T11:41:34;11.23;;;10.07;;
8413;SDS011;4244;48.684;9.028;2023-06-26T11:44:04;10.13;;;9.33;;
8413;SDS011;4244;48.684;9.028;2023-06-26T11:46:31;11.00;;;10.10;;
8413;SDS011;4244;48.684;9.028;2023-06-26T11:48:57;11.00;;;10.10;;
8413;SDS011;4244;48.684;9.028;2023-06-26T11:51:22;10.00;;;9.20;;
8413;SDS011;4244;48.684;9.028;2023-06-26T11:53:48;10.43;;;9.60;;
8413;SDS011;4244;48.684;9.028;2023-06-26T11:56:15;10.67;;;9.87;;
8413;SDS011;4244;48.684;9.028;2023-06-26T11:59:00;11.03;;;10.10;;
8413;SDS011;4244;48.684;9.028;2023-06-26T12:01:33;10.83;;;10.03;;
8413;SDS011;4244;48.684;9.028;2023-06-26T12:04:01;10.70;;;9.90;;
8413;SDS011;4244;48.684;9.028;2023-06-26T12:06:33;10.50;;;9.60;;
8413;SDS011;4244;48.684;9.028;2023-06-26T12:09:04;11.17;;;10.23;;
8413;SDS011;4244;48.684;9.028;2023-06-26T12:11:32;11.20;;;10.37;;
8413;SDS011;4244;48.684;9.028;2023-06-26T12:13:59;10.70;;;9.80;;
8413;SDS011;4244;48.684;9.028;2023-06-26T12:16:24;10.17;;;9.33;;
8413;SDS011;4244;48.684;9.028;2023-06-26T12:18:50;9.67;;;8.87;;
8413;SDS011;4244;48.684;9.028;2023-06-26T12:24:09;10.40;;;9.60;;
8413;SDS011;4244;48.684;9.028;2023-06-26T12:26:40;9.80;;;8.80;;
8413;SDS011;4244;48.684;9.028;2023-06-26T12:29:12;9.93;;;9.13;;
8413;SDS011;4244;48.684;9.028;2023-06-26T12:31:45;9.57;;;8.60;;
8413;SDS011;4244;48.684;9.028;2023-06-26T12:34:18;10.23;;;9.33;;
8413;SDS011;4244;48.684;9.028;2023-06-26T12:36:46;10.37;;;9.37;;
8413;SDS011;4244;48.684;9.028;2023-06-26T12:39:14;10.13;;;9.10;;
8413;SDS011;4244;48.684;9.028;2023-06-26T12:41:53;10.23;;;9.30;;
8413;SDS011;4244;48.684;9.028;2023-06-26T12:44:26;10.07;;;9.27;;
8413;SDS011;4244;48.684;9.028;2023-06-26T12:46:54;10.53;;;9.73;;
8413;SDS011;4244;48.684;9.028;2023-06-26T12:49:28;9.83;;;9.03;;
8413;SDS011;4244;48.684;9.028;2023-06-26T12:52:00;9.00;;;8.20;;
8413;SDS011;4244;48.684;9.028;2023-06-26T12:54:27;11.20;;;10.13;;
8413;SDS011;4244;48.684;9.028;2023-06-26T12:56:53;10.30;;;9.40;;
8413;SDS011;4244;48.684;9.028;2023-06-26T12:59:21;11.00;;;10.20;;
8413;SDS011;4244;48.684;9.028;2023-06-26T13:01:47;9.53;;;8.63;;
8413;SDS011;4244;48.684;9.028;2023-06-26T13:04:13;10.43;;;9.50;;
8413;SDS011;4244;48.684;9.028;2023-06-26T13:06:38;9.60;;;8.80;;
8413;SDS011;4244;48.684;9.028;2023-06-26T13:09:04;9.87;;;9.00;;
8413;SDS011;4244;48.684;9.028;2023-06-26T13:11:31;9.57;;;8.77;;
8413;SDS011;4244;48.684;9.028;2023-06-26T13:13:57;8.90;;;8.20;;
8413;SDS011;4244;48.684;9.028;2023-06-26T13:16:23;9.23;;;8.53;;
8413;SDS011;4244;48.684;9.028;2023-06-26T13:18:49;8.70;;;8.00;;
8413;SDS011;4244;48.684;9.028;2023-06-26T13:21:14;10.47;;;9.57;;
8413;SDS011;4244;48.684;9.028;2023-06-26T13:23:41;9.60;;;8.50;;
8413;SDS011;4244;48.684;9.028;2023-06-26T13:26:07;8.87;;;8.00;;
8413;SDS011;4244;48.684;9.028;2023-06-26T13:28:33;9.20;;;8.50;;
8413;SDS011;4244;48.684;9.028;2023-06-26T13:30:58;13.70;;;9.03;;
8413;SDS011;4244;48.684;9.028;2023-06-26T13:33:24;8.83;;;8.13;;
8413;SDS011;4244;48.684;9.028;2023-06-26T13:35:51;8.73;;;8.03;;
8413;SDS011;4244;48.684;9.028;2023-06-26T13:38:18;9.23;;;8.33;;
8413;SDS011;4244;48.684;9.028;2023-06-26T13:40:45;8.23;;;7.53;;
8413;SDS011;4244;48.684;9.028;2023-06-26T13:43:10;9.20;;;7.87;;
8413;SDS011;4244;48.684;9.028;2023-06-26T13:45:36;8.80;;;8.00;;
8413;SDS011;4244;48.684;9.028;2023-06-26T13:48:02;8.63;;;7.93;;
8413;SDS011;4244;48.684;9.028;2023-06-26T13:50:29;8.80;;;7.63;;
8413;SDS011;4244;48.684;9.028;2023-06-26T13:53:00;8.30;;;7.63;;
8413;SDS011;4244;48.684;9.028;2023-06-26T13:55:27;8.70;;;7.90;;
8413;SDS011;4244;48.684;9.028;2023-06-26T13:57:53;9.77;;;8.83;;
8413;SDS011;4244;48.684;9.028;2023-06-26T14:00:21;7.80;;;7.10;;
8413;SDS011;4244;48.684;9.028;2023-06-26T14:02:47;8.17;;;7.37;;
8413;SDS011;4244;48.684;9.028;2023-06-26T14:05:13;8.40;;;7.60;;
8413;SDS011;4244;48.684;9.028;2023-06-26T14:07:39;10.03;;;8.40;;
8413;SDS011;4244;48.684;9.028;2023-06-26T14:10:05;8.33;;;7.73;;
8413;SDS011;4244;48.684;9.028;2023-06-26T14:12:31;7.87;;;7.07;;
8413;SDS011;4244;48.684;9.028;2023-06-26T14:14:57;8.17;;;7.43;;
8413;SDS011;4244;48.684;9.028;2023-06-26T14:17:24;8.40;;;7.60;;
8413;SDS011;4244;48.684;9.028;2023-06-26T14:19:53;8.17;;;7.47;;
8413;SDS011;4244;48.684;9.028;2023-06-26T14:22:19;8.13;;;6.63;;
8413;SDS011;4244;48.684;9.028;2023-06-26T14:24:44;7.67;;;6.97;;
8413;SDS011;4244;48.684;9.028;2023-06-26T14:27:10;7.50;;;6.90;;
8413;SDS011;4244;48.684;9.028;2023-06-26T14:29:36;7.47;;;6.80;;
8413;SDS011;4244;48.684;9.028;2023-06-26T14:32:02;7.53;;;6.83;;
8413;SDS011;4244;48.684;9.028;2023-06-26T14:34:28;6.90;;;6.20;;
8413;SDS011;4244;48.684;9.028;2023-06-26T14:36:54;6.67;;;6.17;;
8413;SDS011;4244;48.684;9.028;2023-06-26T14:39:20;7.57;;;6.97;;
8413;SDS011;4244;48.684;9.028;2023-06-26T14:41:47;6.40;;;5.80;;
8413;SDS011;4244;48.684;9.028;2023-06-26T14:44:13;6.40;;;5.90;;
8413;SDS011;4244;48.684;9.028;2023-06-26T14:46:41;6.10;;;5.60;;
8413;SDS011;4244;48.684;9.028;2023-06-26T14:49:08;7.47;;;6.50;;
8413;SDS011;4244;48.684;9.028;2023-06-26T14:51:33;7.60;;;5.27;;
8413;SDS011;4244;48.684;9.028;2023-06-26T14:53:59;7.00;;;6.00;;
8413;SDS011;4244;48.684;9.028;2023-06-26T14:56:25;5.90;;;5.40;;
8413;SDS011;4244;48.684;9.028;2023-06-26T14:58:52;6.93;;;5.50;;
8413;SDS011;4244;48.684;9.028;2023-06-26T15:01:18;5.47;;;4.97;;
8413;SDS011;4244;48.684;9.028;2023-06-26T15:03:47;7.70;;;5.20;;
8413;SDS011;4244;48.684;9.028;2023-06-26T15:06:13;7.50;;;6.00;;
8413;SDS011;4244;48.684;9.028;2023-06-26T15:08:39;5.87;;;5.33;;
8413;SDS011;4244;48.684;9.028;2023-06-26T15:11:04;6.07;;;5.30;;
8413;SDS011;4244;48.684;9.028;2023-06-26T15:13:30;5.97;;;5.47;;
8413;SDS011;4244;48.684;9.028;2023-06-26T15:15:56;5.80;;;5.30;;
8413;SDS011;4244;48.684;9.028;2023-06-26T15:18:21;7.10;;;6.20;;
8413;SDS011;4244;48.684;9.028;2023-06-26T15:20:47;6.47;;;5.87;;
8413;SDS011;4244;48.684;9.028;2023-06-26T15:23:13;6.30;;;5.70;;